Hlavní strana
METAR-TAF:

METAR-TAF

Letiště :

Inuvik, Severozápadní teritoria, Kanada

zeměpisná šířka: 68-18N, zeměpisná délka: 133-29W, výška: 59 m

Aktuální stav počasí

Zpráva byla vytvořena před 48 minutami, v 09:00 UTC
Jižní vítr 8 kt, proměnlivý mezi jižním a západojihozápadním
Teplota -17°C
Vlhkost vzduchu 59%
Tlak 1023 hPa
Viditelnost: 24.1 km
Polojasno ve výšce 20000 ft

METAR: CYEV 170900Z 19008KT 180V240 15SM SCT200 M17/M23 A3021 RMK CS3 PRESRR SLP240

Čas: 02:48 (09:48 UTC)

Předpověď počasí

Zpráva byla vytvořena před 3 hodinami a 10 minutami, v 06:38 UTC
Předpověď platná od 17 v 07 UTC do 17 v 19 UTC
Jihojihovýchodní vítr 8 kt
Viditelnost: 10 km
Oblačno až skoro zataženo ve výšce 20000 ft
Změna
od 17 v 12 UTC do 17 v 14 UTC
Východojihovýchodní vítr 5 kt

TAF: CYEV 170638Z 1707/1719 16008KT P6SM BKN200 BECMG 1712/1714 11005KT RMK NXT FCST BY 171300Z

Stav a předpovědi počasí z více než 4 000 letišť (zprávy METAR a TAF).

Červené a žluté tečky na mapě představují dostupné meteorologické stanice.

Když kurzor umístíte na tečku, zobrazí se název stanice.

Pak kliknutím zobrazíte stav a předpověď počasí.

Chcete-li změnit mapu, kliknutím na zelené tlačítko se znaménkem +mapu přiblížíte, kliknutím na zelené tlačítko se znaménkem – mapu oddálíte a kliknutím na zelené šipky přejdete na sousední mapy.


METAR-TAF: